Paulina, Oregon
Current Conditions -  °F | °C
As of 11:15 AM on Friday 24 Oct 2014 (Local Time) from KS39 Reporting Station
Scattered Clouds Scattered Clouds  
Wind Chill: 10°   Ceiling: Unl
Heat Index: 10°   Visibility: 10mi
Dew Point:   Wind: 6mph
Humidity: 82%   Direction: 130°SE
Pressure: 30.03"   Gusts: NA
Location:  44.13°N, 119.97°W
Report Text: KS39 241815Z AUTO 13005KT 10SM FEW055 SCT070 10/07 A3003 RMK AO2
Loading
Personal Weather Stations






























Interactive Weather Map
Tropical Storm Tracking
New forecast layout! Learn more

10-Day Weather Forecast

Advertisements
Track Severe Weather on mobile